Latest Weather Observations for Richmond

IDN60801

Issued at 3:03 pm EST Sunday 25 September 2016 (issued every 30 minutes, with the page automatically refreshed every 10 minutes)

About weather observations | Map of weather stations | Latest weather observations for NSW | Other Formats
Station Details ID: 067105 Name: RICHMOND RAAF Lat: -33.60 Lon: 150.78 Height: 19.0 m
Data from the previous 72 hours. | See also: Recent months at Richmond
Date/Time
EST
Temp
°C
App
Temp
°C
Dew
Point
°C
Rel
Hum
%
Delta-T
°C
Wind Press
QNH
hPa
Press
MSL
hPa
Rain since
9am
mm
Dir  Spd
km/h
Gust
km/h
Spd
kts
Gust
kts
25/03:00pm 22.0 18.0 8.2 41 7.3 SSW 19 26 10 14 1005.4 1005.4 0.0
25/02:30pm 21.9 17.4 8.4 42 7.1 SW 22 32 12 17 1005.2 1005.2 0.0
25/02:00pm 21.9 17.0 9.8 46 6.6 SW 26 35 14 19 1005.1 1005.1 0.0
25/01:30pm 21.3 17.4 9.5 47 6.3 SW 20 30 11 16 1004.9 1004.9 0.0
25/01:00pm 21.5 17.8 10.0 48 6.2 W 20 28 11 15 1005.0 1005.0 0.0
25/12:30pm 20.8 18.8 10.0 50 5.8 WSW 11 19 6 10 1005.2 1005.2 0.0
25/12:00pm 20.1 19.4 11.3 57 4.9 NNE 6 11 3 6 1005.1 1005.1 0.0
25/11:30am 19.3 18.2 10.8 58 4.6 SE 7 11 4 6 1005.2 1005.2 0.0
25/11:00am 19.3 18.6 12.1 63 4.0 NE 7 17 4 9 1005.4 1005.4 0.0
25/10:30am 17.6 16.3 11.4 67 3.4 N 9 13 5 7 1005.7 1005.7 0.0
25/10:00am 16.2 15.1 12.0 76 2.3 NE 9 11 5 6 1006.3 1006.3 0.0
25/09:30am 15.1 14.5 11.7 80 1.8 N 6 7 3 4 1006.7 1006.7 0.0
25/09:00am 14.7 13.6 12.0 84 1.5 NNW 9 13 5 7 1006.8 1006.8 1.0
25/08:30am 13.7 12.6 11.9 89 1.0 N 9 13 5 7 1007.0 1007.0 1.0
25/08:00am 13.5 12.3 11.7 89 1.0 N 9 13 5 7 1007.0 1007.0 0.6
25/07:30am 13.4 12.5 11.5 88 1.0 NNE 7 9 4 5 1006.9 1006.9 0.6
25/07:00am 13.1 12.2 11.3 89 1.0 N 7 9 4 5 1006.8 1006.8 0.6
25/06:30am 12.9 11.7 11.5 91 0.7 NW 9 13 5 7 1006.7 1006.7 0.6
25/06:00am 12.8 10.9 11.7 93 0.6 NNW 13 17 7 9 1006.6 1006.6 0.6
25/05:30am 12.6 11.0 11.5 93 0.6 N 11 13 6 7 1006.4 1006.4 0.6
25/05:00am 13.0 11.8 11.6 91 0.7 N 9 13 5 7 1006.5 1006.5 0.4
25/04:30am 13.5 12.4 10.7 83 1.5 N 7 9 4 5 1006.5 1006.5 0.0
25/04:00am 14.1 12.8 10.1 77 2.1 NW 7 11 4 6 1006.6 1006.6 0.0
25/03:30am 14.4 12.4 10.2 76 2.2 NNW 11 15 6 8 1006.5 1006.5 0.0
25/03:00am 15.1 13.1 10.3 73 2.5 NNW 11 19 6 10 1006.6 1006.6 0.0
25/02:30am 14.5 13.9 13.5 94 0.6 NW 9 13 5 7 1006.6 1006.6 0.0
25/02:00am 13.9 13.9 13.6 98 0.2 NNE 6 11 3 6 1006.5 1006.5 0.0
25/01:30am 14.3 15.4 13.5 95 0.4 CALM 0 0 0 0 1006.4 1006.4 0.0
25/01:00am 14.2 14.6 13.6 96 0.3 WNW 4 7 2 4 1007.0 1007.0 0.0
25/12:30am 14.0 15.1 13.4 96 0.3 CALM 0 0 0 0 1007.2 1007.2 0.0
25/12:00am 13.9 13.6 13.3 96 0.3 NNW 7 9 4 5 1007.8 1007.8 0.0
 
Date/Time
EST
Temp
°C
App
Temp
°C
Dew
Point
°C
Rel
Hum
%
Delta-T
°C
Wind Press
QNH
hPa
Press
MSL
hPa
Rain since
9am
mm
Dir  Spd
km/h
Gust
km/h
Spd
kts
Gust
kts
24/11:30pm 14.2 15.2 13.2 94 0.6 CALM 0 0 0 0 1007.4 1007.4 0.0
24/11:00pm 14.0 14.5 12.7 92 0.7 SW 2 6 1 3 1007.7 1007.7 0.0
24/10:30pm 14.3 14.2 13.2 93 0.6 W 6 7 3 4 1008.0 1008.0 0.0
24/10:00pm 13.9 13.1 13.0 94 0.5 NW 9 9 5 5 1007.9 1007.9 0.0
24/09:30pm 14.4 15.2 12.6 89 1.0 CALM 0 0 0 0 1008.0 1008.0 0.0
24/09:00pm 14.9 14.4 12.6 86 1.3 SSW 7 9 4 5 1008.2 1008.2 0.0
24/08:30pm 14.9 14.5 12.4 85 1.4 WNW 6 7 3 4 1008.5 1008.5 0.0
24/08:00pm 16.4 15.7 12.0 75 2.4 ESE 7 9 4 5 1008.5 1008.5 0.0
24/07:30pm 16.8 15.9 12.7 77 2.3 SE 9 11 5 6 1008.4 1008.4 0.0
24/07:00pm 17.6 16.9 13.1 75 2.5 ESE 9 13 5 7 1007.8 1007.8 0.0
24/06:30pm 18.1 17.0 13.0 72 2.9 ENE 11 13 6 7 1007.5 1007.5 0.0
24/06:00pm 19.1 17.7 13.3 69 3.3 E 13 22 7 12 1007.6 1007.6 0.0
24/05:30pm 19.6 17.4 13.3 67 3.6 E 17 26 9 14 1007.1 1007.1 0.0
24/05:00pm 21.1 18.4 13.5 62 4.4 ENE 20 26 11 14 1006.7 1006.7 0.0
24/04:30pm 22.1 19.2 12.9 56 5.3 ENE 20 28 11 15 1006.5 1006.5 0.0
24/04:00pm 23.0 21.6 10.8 46 6.8 NE 9 13 5 7 1006.4 1006.4 0.0
24/03:30pm 23.3 21.6 10.0 43 7.3 ENE 9 15 5 8 1006.5 1006.5 0.0
24/03:00pm 23.7 21.5 10.7 44 7.2 ENE 13 20 7 11 1006.6 1006.6 0.0
24/02:30pm 23.6 21.2 9.9 42 7.5 E 13 24 7 13 1006.7 1006.7 0.0
24/02:00pm 23.1 20.7 10.2 44 7.1 ENE 13 28 7 15 1007.1 1007.1 0.0
24/01:30pm 22.9 19.9 10.7 46 6.7 ESE 17 26 9 14 1007.9 1007.9 0.0
24/01:00pm 22.1 20.1 10.3 47 6.5 ESE 11 22 6 12 1008.6 1008.6 0.0
24/12:30pm 22.1 20.3 10.9 49 6.2 ESE 11 17 6 9 1009.2 1009.2 0.0
24/12:00pm 21.5 19.5 8.7 44 6.8 NE 9 15 5 8 1009.8 1009.8 0.0
24/11:30am 21.3 19.9 10.8 51 5.8 NNE 9 17 5 9 1010.4 1010.4 0.0
24/11:00am 20.4 19.7 10.2 52 5.5 WNW 4 9 2 5 1010.9 1010.9 0.0
24/10:30am 19.8 18.8 10.2 54 5.2 NNE 6 11 3 6 1011.4 1011.4 0.0
24/10:00am 19.1 18.3 11.2 60 4.3 NE 6 11 3 6 1011.9 1011.9 0.0
24/09:30am 18.2 17.5 11.3 64 3.8 N 6 9 3 5 1012.4 1012.4 0.0
24/09:00am 16.4 15.4 11.1 71 2.8 NNE 7 11 4 6 1012.7 1012.7 0.0
24/08:30am 15.2 14.6 11.6 79 1.9 NE 6 9 3 5 1013.0 1013.0 0.0
24/08:00am 13.9 13.9 11.1 83 1.5 SE 2 7 1 4 1013.2 1013.2 0.0
24/07:30am 12.0 11.2 11.1 94 0.5 NNE 6 7 3 4 1013.3 1013.3 0.0
24/07:00am 10.0 10.0 9.9 99 0.1 CALM 0 0 0 0 1013.2 1013.2 0.0
24/06:30am 8.8 8.5 8.5 98 0.1 CALM 0 2 0 1 1012.8 1012.8 0.0
24/06:26am 8.4 8.0 8.1 98 0.1 CALM 0 0 0 0 1012.7 1012.7 0.0
24/06:25am 8.4 8.0 8.1 98 0.1 CALM 0 0 0 0 1012.7 1012.7 0.0
24/06:00am 7.1 6.0 6.8 98 0.1 N 2 6 1 3 1012.4 1012.4 0.0
24/05:33am 7.6 5.8 7.3 98 0.1 N 6 7 3 4 1012.3 1012.3 0.0
24/05:30am 7.7 6.0 7.4 98 0.1 N 6 7 3 4 1012.2 1012.2 0.0
24/05:00am 7.5 6.9 7.2 98 0.1 CALM 0 0 0 0 1011.9 1011.9 0.0
24/04:39am 7.9 6.6 7.6 98 0.1 E 4 6 2 3 1011.8 1011.8 0.0
24/04:30am 8.1 6.8 7.8 98 0.1 E 4 6 2 3 1011.9 1011.9 0.0
24/04:00am 8.1 7.6 7.8 98 0.1 CALM 0 0 0 0 1011.9 1011.9 0.0
24/03:30am 8.1 7.6 7.8 98 0.1 CALM 0 0 0 0 1011.7 1011.7 0.0
24/03:00am 8.2 7.7 7.9 98 0.1 CALM 0 0 0 0 1011.7 1011.7 0.0
24/02:37am 8.4 8.0 8.1 98 0.1 CALM 0 0 0 0 1011.8 1011.8 0.0
24/02:30am 8.7 8.0 8.4 98 0.1 WNW 2 6 1 3 1011.8 1011.8 0.0
24/02:17am 8.5 7.3 8.2 98 0.1 WNW 4 7 2 4 1011.9 1011.9 0.0
24/02:00am 8.8 8.1 8.5 98 0.1 NW 2 7 1 4 1011.9 1011.9 0.0
24/01:30am 9.1 8.8 8.8 98 0.1 CALM 0 0 0 0 1012.0 1012.0 0.0
24/01:00am 9.4 9.2 8.9 97 0.2 CALM 0 0 0 0 1012.0 1012.0 0.0
24/12:30am 9.5 8.9 8.9 96 0.3 NNE 2 7 1 4 1012.3 1012.3 0.0
24/12:00am 10.1 10.0 9.3 95 0.4 CALM 0 0 0 0 1012.4 1012.4 0.0
 
Date/Time
EST
Temp
°C
App
Temp
°C
Dew
Point
°C
Rel
Hum
%
Delta-T
°C
Wind Press
QNH
hPa
Press
MSL
hPa
Rain since
9am
mm
Dir  Spd
km/h
Gust
km/h
Spd
kts
Gust
kts
23/11:30pm 10.4 10.3 9.6 95 0.4 CALM 0 0 0 0 1012.4 1012.4 0.0
23/11:00pm 11.2 10.1 10.0 92 0.6 WSW 6 7 3 4 1012.4 1012.4 0.0
23/10:30pm 11.6 10.1 10.7 94 0.5 W 9 11 5 6 1012.5 1012.5 0.0
23/10:00pm 11.6 11.3 10.2 91 0.7 WNW 2 6 1 3 1012.5 1012.5 0.0
23/09:30pm 12.5 12.7 10.4 87 1.1 CALM 0 0 0 0 1012.6 1012.6 0.0
23/09:00pm 12.4 12.3 9.6 83 1.4 CALM 0 0 0 0 1012.8 1012.8 0.0
23/08:30pm 13.5 13.7 10.5 82 1.6 CALM 0 0 0 0 1012.7 1012.7 0.0
23/08:00pm 13.7 13.8 10.1 79 1.9 CALM 0 0 0 0 1012.4 1012.4 0.0
23/07:30pm 15.7 15.0 10.0 69 3.0 E 4 6 2 3 1012.1 1012.1 0.0
23/07:00pm 16.6 15.0 10.2 66 3.4 SE 9 11 5 6 1011.9 1011.9 0.0
23/06:30pm 17.7 15.7 10.3 62 3.9 SE 11 13 6 7 1011.5 1011.5 0.0
23/06:00pm 18.3 16.5 9.4 56 4.7 S 9 11 5 6 1011.1 1011.1 0.0
23/05:30pm 19.3 16.7 9.5 53 5.2 S 13 17 7 9 1010.8 1010.8 0.0
23/05:00pm 19.7 16.3 9.3 51 5.5 SSE 17 22 9 12 1010.4 1010.4 0.0
23/04:30pm 20.7 18.4 9.0 47 6.2 S 11 19 6 10 1010.0 1010.0 0.0
23/04:00pm 21.2 17.5 9.4 47 6.3 SSE 19 28 10 15 1010.0 1010.0 0.0
23/03:30pm 21.5 17.1 9.1 45 6.6 SSE 22 28 12 15 1010.0 1010.0 0.0
23/03:00pm 21.6 18.1 10.1 48 6.2 SSE 19 30 10 16 1010.1 1010.1 0.0
23/02:30pm 20.9 16.6 9.2 47 6.2 SSE 22 30 12 16 1010.4 1010.4 0.0
23/02:00pm 20.6 16.6 8.9 47 6.2 S 20 35 11 19 1010.5 1010.5 0.0
23/01:30pm 21.0 16.3 9.3 47 6.2 S 24 35 13 19 1010.4 1010.4 0.0
23/01:00pm 20.9 15.7 8.9 46 6.4 S 26 37 14 20 1010.6 1010.6 0.0
23/12:30pm 22.2 17.6 9.7 45 6.8 S 24 32 13 17 1010.7 1010.7 0.0
23/12:00pm 21.6 17.1 10.1 48 6.2 S 24 33 13 18 1011.0 1011.0 0.0
23/11:30am 20.6 16.6 9.2 48 6.1 SSW 20 30 11 16 1011.4 1011.4 0.0
23/11:00am 20.5 16.1 9.1 48 6.0 S 22 35 12 19 1011.5 1011.5 0.0
23/10:30am 20.6 15.5 9.2 48 6.1 S 26 41 14 22 1011.5 1011.5 0.0
23/10:11am 20.2 14.6 8.8 48 6.0 SSW 28 48 15 26 1011.6 1011.6 0.0
23/10:00am 19.8 14.1 8.5 48 5.9 SSW 28 39 15 21 1011.7 1011.7 0.0
23/09:30am 19.4 14.1 8.4 49 5.7 SSW 26 41 14 22 1012.0 1012.0 0.0
23/09:00am 18.4 13.4 8.1 51 5.3 S 24 37 13 20 1012.1 1012.1 0.2
23/08:30am 17.6 12.5 7.6 52 5.1 SSW 24 43 13 23 1012.0 1012.0 0.2
23/08:00am 17.1 12.4 7.7 54 4.7 SW 22 32 12 17 1012.0 1012.0 0.2
23/07:30am 15.7 12.8 8.2 61 3.8 SW 13 19 7 10 1012.2 1012.2 0.2
23/07:00am 15.5 12.3 8.3 62 3.6 WSW 15 19 8 10 1011.9 1011.9 0.2
23/06:30am 14.1 12.1 8.5 69 2.8 W 9 9 5 5 1011.8 1011.8 0.2
23/06:00am 12.7 10.4 7.4 70 2.6 WSW 9 15 5 8 1011.3 1011.3 0.2
23/05:30am 12.1 9.9 8.0 76 2.0 WSW 9 11 5 6 1010.9 1010.9 0.2
23/05:00am 11.8 9.7 6.7 71 2.4 WSW 7 9 4 5 1010.4 1010.4 0.2
23/04:30am 12.9 10.6 7.4 69 2.7 WSW 9 11 5 6 1009.8 1009.8 0.2
23/04:00am 13.7 11.7 7.0 64 3.3 WSW 7 11 4 6 1009.5 1009.5 0.2
23/03:30am 13.9 11.5 7.0 63 3.4 SW 9 13 5 7 1009.5 1009.5 0.2
23/03:00am 14.4 11.3 7.2 62 3.5 SW 13 20 7 11 1009.6 1009.6 0.2
23/02:30am 14.5 11.0 7.3 62 3.5 SW 15 20 8 11 1009.6 1009.6 0.2
23/02:00am 14.1 11.7 7.2 63 3.4 SW 9 13 5 7 1009.8 1009.8 0.2
23/01:30am 14.6 12.6 7.2 61 3.6 SW 7 13 4 7 1009.7 1009.7 0.2
23/01:00am 15.5 12.8 7.5 59 4.0 SW 11 17 6 9 1009.8 1009.8 0.2
23/12:30am 15.2 12.5 7.3 59 3.9 WSW 11 15 6 8 1009.9 1009.9 0.2
23/12:00am 15.6 12.2 7.6 59 4.0 WSW 15 19 8 10 1009.8 1009.8 0.2
 
Date/Time
EST
Temp
°C
App
Temp
°C
Dew
Point
°C
Rel
Hum
%
Delta-T
°C
Wind Press
QNH
hPa
Press
MSL
hPa
Rain since
9am
mm
Dir  Spd
km/h
Gust
km/h
Spd
kts
Gust
kts
22/11:30pm 15.4 12.1 7.9 61 3.8 WSW 15 17 8 9 1009.9 1009.9 0.2
22/11:00pm 15.6 12.6 7.9 60 3.9 WSW 13 26 7 14 1009.8 1009.8 0.2
22/10:30pm 15.5 13.0 8.3 62 3.6 WSW 11 19 6 10 1009.8 1009.8 0.2
22/10:00pm 15.0 12.9 8.3 64 3.4 WSW 9 13 5 7 1009.6 1009.6 0.2
22/09:30pm 15.1 12.2 8.3 64 3.4 WSW 13 17 7 9 1009.6 1009.6 0.2
22/09:00pm 16.0 13.5 8.2 60 4.0 SW 11 17 6 9 1009.5 1009.5 0.2
22/08:30pm 15.3 13.2 8.1 62 3.6 WSW 9 11 5 6 1009.4 1009.4 0.2
22/08:00pm 16.3 14.2 8.3 59 4.1 WSW 9 11 5 6 1009.4 1009.4 0.2
22/07:30pm 16.5 13.6 8.0 57 4.3 WSW 13 17 7 9 1009.2 1009.2 0.2
22/07:00pm 16.7 12.6 7.9 56 4.5 WSW 19 24 10 13 1008.9 1008.9 0.2
22/06:30pm 16.7 12.6 7.9 56 4.4 W 19 32 10 17 1008.5 1008.5 0.2
22/06:00pm 17.0 12.6 7.6 54 4.7 W 20 28 11 15 1008.2 1008.2 0.2
22/05:30pm 17.4 12.3 7.7 53 4.9 W 24 41 13 22 1007.8 1007.8 0.2
22/05:00pm 17.4 11.6 8.0 54 4.8 W 28 39 15 21 1007.6 1007.6 0.2
22/04:30pm 17.8 12.5 8.4 54 4.8 W 26 39 14 21 1007.1 1007.1 0.2
22/04:00pm 18.1 13.6 8.4 53 5.0 W 22 32 12 17 1006.8 1006.8 0.2
22/03:30pm 17.9 11.4 8.2 53 5.0 W 32 41 17 22 1006.8 1006.8 0.2

Other Formats:

Comma delimited format used in spreadsheet applications
http://www.bom.gov.au/fwo/IDN60801/IDN60801.95753.axf

JavaScript Object Notation format (JSON) in row-major order
http://www.bom.gov.au/fwo/IDN60801/IDN60801.95753.json